createdAt,value
2019-01-10T00:01:20.491Z,55.67
2019-01-10T00:03:47.007Z,50.73
2019-01-10T00:06:13.560Z,48.35
2019-01-10T00:08:40.404Z,49.18
2019-01-10T00:11:07.244Z,49.98
2019-01-10T00:13:33.780Z,48.85
2019-01-10T00:16:00.315Z,50.25
2019-01-10T00:18:27.178Z,51.98
2019-01-10T00:20:53.695Z,52.50
2019-01-10T00:23:20.530Z,51.35
2019-01-10T00:25:47.065Z,49.95
2019-01-10T00:28:13.599Z,51.75
2019-01-10T00:30:40.442Z,50.98
2019-01-10T00:33:07.283Z,45.75
2019-01-10T00:35:33.845Z,49.27
2019-01-10T00:38:00.354Z,53.17
2019-01-10T00:40:26.902Z,50.15
2019-01-10T00:42:53.727Z,45.67
2019-01-10T00:45:20.573Z,49.63
2019-01-10T00:47:47.111Z,48.35
2019-01-10T00:50:13.639Z,49.50
2019-01-10T00:52:40.173Z,48.28
2019-01-10T00:55:06.712Z,45.58
2019-01-10T00:57:33.551Z,46.68
2019-01-10T01:00:00.437Z,48.68
2019-01-10T01:02:27.636Z,48.13
2019-01-10T01:04:54.690Z,46.88
2019-01-10T01:07:21.531Z,43.98
2019-01-10T01:09:48.064Z,46.55
2019-01-10T01:12:14.907Z,44.95
2019-01-10T01:14:41.752Z,39.27
2019-01-10T01:17:08.590Z,47.73
2019-01-10T01:19:35.130Z,44.75
2019-01-10T01:22:01.663Z,46.00
2019-01-10T01:24:28.195Z,46.58
2019-01-10T01:26:55.035Z,39.78
2019-01-10T01:29:21.569Z,43.23
2019-01-10T01:31:48.417Z,43.28
2019-01-10T01:34:15.253Z,44.20
2019-01-10T01:36:42.093Z,45.33
2019-01-10T01:39:08.629Z,54.53
2019-01-10T01:41:35.474Z,43.23
2019-01-10T01:44:02.320Z,44.85
2019-01-10T01:46:28.855Z,43.05
2019-01-10T01:48:55.389Z,45.10
2019-01-10T01:51:22.229Z,49.38
2019-01-10T01:53:48.767Z,43.28
2019-01-10T01:56:15.598Z,47.10
2019-01-10T01:58:42.440Z,49.58
2019-01-10T02:01:08.974Z,55.03
2019-01-10T02:03:35.509Z,54.10
2019-01-10T02:06:02.044Z,53.17
2019-01-10T02:08:28.582Z,52.85
2019-01-10T02:10:55.112Z,54.15
2019-01-10T02:13:21.647Z,60.78
2019-01-10T02:15:48.187Z,51.02
2019-01-10T02:18:15.026Z,47.17
2019-01-10T02:20:41.557Z,45.35
2019-01-10T02:23:08.401Z,46.53
2019-01-10T02:25:34.943Z,52.40
2019-01-10T02:28:01.470Z,49.20
2019-01-10T02:30:28.003Z,51.23
2019-01-10T02:32:54.844Z,46.58
2019-01-10T02:35:21.690Z,47.27
2019-01-10T02:37:48.614Z,46.13
2019-01-10T02:40:16.292Z,48.90
2019-01-10T02:42:42.829Z,50.03
2019-01-10T02:45:09.448Z,46.83
2019-01-10T02:47:36.303Z,50.52
2019-01-10T02:50:02.843Z,50.60
2019-01-10T02:52:29.578Z,50.45
2019-01-10T02:54:56.116Z,49.27
2019-01-10T02:57:22.647Z,48.33
2019-01-10T02:59:49.215Z,45.50
2019-01-10T03:02:16.026Z,45.43
2019-01-10T03:04:42.565Z,52.33
2019-01-10T03:07:09.399Z,49.55
2019-01-10T03:09:35.944Z,47.98
2019-01-10T03:12:02.781Z,49.30
2019-01-10T03:14:29.310Z,50.78
2019-01-10T03:16:56.153Z,48.78
2019-01-10T03:19:22.691Z,47.65
2019-01-10T03:21:49.529Z,51.83
2019-01-10T03:24:16.062Z,51.53
2019-01-10T03:26:42.600Z,53.38
2019-01-10T03:29:11.481Z,49.75
2019-01-10T03:31:37.511Z,50.05
2019-01-10T03:34:04.043Z,48.90
2019-01-10T03:36:30.583Z,52.08
2019-01-10T03:38:57.422Z,49.20
2019-01-10T03:41:23.955Z,49.73
2019-01-10T03:43:50.797Z,48.25
2019-01-10T03:46:17.331Z,48.75
2019-01-10T03:48:43.867Z,44.98
2019-01-10T03:51:10.403Z,52.43
2019-01-10T03:53:36.939Z,49.38
2019-01-10T03:56:03.476Z,52.10
2019-01-10T03:58:30.005Z,47.23
2019-01-10T04:00:56.543Z,50.20
2019-01-10T04:03:23.382Z,46.65
2019-01-10T04:05:49.925Z,52.45
2019-01-10T04:08:16.756Z,48.70
2019-01-10T04:10:43.292Z,50.05
2019-01-10T04:13:10.132Z,48.15
2019-01-10T04:15:36.650Z,44.05
2019-01-10T04:18:03.201Z,49.67
2019-01-10T04:20:30.059Z,49.18
2019-01-10T04:22:56.885Z,45.95
2019-01-10T04:25:23.421Z,49.35
2019-01-10T04:27:49.954Z,49.55
2019-01-10T04:30:16.795Z,48.25
2019-01-10T04:32:43.330Z,47.08
2019-01-10T04:35:09.863Z,49.03
2019-01-10T04:37:36.708Z,48.50
2019-01-10T04:40:03.240Z,47.95
2019-01-10T04:42:30.082Z,48.38
2019-01-10T04:44:56.616Z,49.13
2019-01-10T04:47:23.459Z,48.90
2019-01-10T04:49:49.994Z,46.10
2019-01-10T04:52:16.526Z,44.83
2019-01-10T04:54:43.066Z,46.77
2019-01-10T04:57:09.596Z,48.48
2019-01-10T04:59:36.440Z,43.80
2019-01-10T05:02:02.973Z,45.00
2019-01-10T05:04:30.122Z,47.78
2019-01-10T05:06:56.664Z,41.55
2019-01-10T05:09:23.497Z,49.25
2019-01-10T05:11:50.133Z,39.70
2019-01-10T05:14:17.028Z,40.08
2019-01-10T05:16:43.726Z,44.42
2019-01-10T05:19:10.556Z,47.03
2019-01-10T05:21:37.121Z,49.67
2019-01-10T05:24:03.937Z,47.35
2019-01-10T05:26:30.466Z,45.03
2019-01-10T05:28:57.310Z,44.40
2019-01-10T05:31:24.150Z,45.28
2019-01-10T05:33:50.993Z,47.03
2019-01-10T05:36:17.836Z,41.20
2019-01-10T05:38:44.369Z,44.13
2019-01-10T05:41:10.902Z,47.20
2019-01-10T05:43:37.743Z,44.58
2019-01-10T05:46:04.293Z,39.42
2019-01-10T05:48:30.816Z,39.15
2019-01-10T05:50:57.660Z,40.43
2019-01-10T05:53:24.193Z,33.83
2019-01-10T05:55:50.727Z,39.83
2019-01-10T05:58:17.566Z,39.20
2019-01-10T06:00:44.407Z,36.17
2019-01-10T06:03:11.258Z,46.42
2019-01-10T06:05:37.784Z,42.35
2019-01-10T06:08:04.320Z,41.28
2019-01-10T06:10:31.161Z,38.65
2019-01-10T06:12:57.695Z,43.30
2019-01-10T06:15:24.538Z,36.45
2019-01-10T06:17:51.384Z,44.73
2019-01-10T06:20:17.914Z,39.73
2019-01-10T06:22:44.756Z,37.70
2019-01-10T06:25:11.272Z,39.50
2019-01-10T06:27:37.825Z,43.20
2019-01-10T06:30:04.357Z,44.08
2019-01-10T06:32:31.199Z,38.92
2019-01-10T06:34:57.734Z,36.45
2019-01-10T06:37:24.575Z,35.40
2019-01-10T06:39:51.114Z,36.80
2019-01-10T06:42:17.953Z,39.75
2019-01-10T06:44:44.984Z,40.58
2019-01-10T06:47:11.634Z,38.02
2019-01-10T06:49:38.171Z,34.15
2019-01-10T06:52:04.707Z,39.25
2019-01-10T06:54:31.241Z,36.98
2019-01-10T06:56:57.781Z,33.02
2019-01-10T06:59:24.713Z,32.85
2019-01-10T07:01:51.455Z,34.15
2019-01-10T07:04:17.994Z,34.00
2019-01-10T07:06:44.832Z,34.27
2019-01-10T07:09:11.368Z,32.08
2019-01-10T07:11:38.210Z,32.88
2019-01-10T07:14:04.744Z,31.62
2019-01-10T07:16:31.277Z,30.43
2019-01-10T07:18:58.122Z,33.88
2019-01-10T07:21:24.963Z,35.55
2019-01-10T07:23:51.802Z,33.42
2019-01-10T07:26:18.340Z,29.07
2019-01-10T07:28:45.178Z,29.95
2019-01-10T07:31:11.716Z,30.35
2019-01-10T07:33:38.248Z,32.00
2019-01-10T07:36:04.782Z,32.75
2019-01-10T07:38:31.629Z,34.05
2019-01-10T07:40:58.466Z,36.90
2019-01-10T07:43:25.393Z,30.75
2019-01-10T07:45:52.165Z,31.10
2019-01-10T07:48:18.994Z,30.23
2019-01-10T07:50:45.933Z,30.00
2019-01-10T07:53:12.983Z,32.13
2019-01-10T07:55:39.825Z,34.70
2019-01-10T07:58:06.363Z,31.65
2019-01-10T08:00:33.198Z,39.18
2019-01-10T08:02:59.738Z,30.65
2019-01-10T08:05:26.267Z,31.33
2019-01-10T08:07:53.109Z,34.20
2019-01-10T08:10:19.649Z,31.25
2019-01-10T08:12:46.099Z,31.42
2019-01-10T08:15:12.712Z,33.55
2019-01-10T08:17:39.248Z,31.02
2019-01-10T08:20:06.093Z,33.20
2019-01-10T08:22:32.623Z,29.67
2019-01-10T08:24:59.160Z,30.17
2019-01-10T08:27:25.999Z,31.37
2019-01-10T08:29:52.534Z,30.70
2019-01-10T08:32:19.068Z,31.90
2019-01-10T08:34:45.609Z,29.15
2019-01-10T08:37:12.446Z,30.23
2019-01-10T08:39:38.980Z,31.10
2019-01-10T08:42:05.620Z,33.63
2019-01-10T08:44:33.635Z,31.07
2019-01-10T08:47:00.430Z,32.78
2019-01-10T08:49:26.964Z,32.50
2019-01-10T08:51:53.496Z,28.23
2019-01-10T08:54:20.337Z,30.92
2019-01-10T08:56:46.870Z,28.62
2019-01-10T08:59:13.713Z,31.02
2019-01-10T09:01:40.253Z,29.80
2019-01-10T09:04:06.783Z,30.02
2019-01-10T09:06:33.318Z,28.73
2019-01-10T09:09:01.131Z,27.45
2019-01-10T09:11:27.922Z,29.30
2019-01-10T09:13:54.462Z,29.90
2019-01-10T09:16:20.994Z,28.52
2019-01-10T09:18:47.834Z,28.50
2019-01-10T09:21:14.680Z,32.08
2019-01-10T09:23:41.517Z,29.35
2019-01-10T09:26:08.052Z,29.92
2019-01-10T09:28:34.591Z,29.60
2019-01-10T09:31:01.119Z,29.30
2019-01-10T09:33:27.653Z,31.95
2019-01-10T09:35:54.188Z,30.02
2019-01-10T09:38:20.723Z,27.73
2019-01-10T09:40:47.565Z,28.85
2019-01-10T09:43:14.112Z,29.65
2019-01-10T09:45:43.495Z,26.97
2019-01-10T09:48:09.010Z,27.20
2019-01-10T09:50:35.550Z,28.85
2019-01-10T09:53:02.098Z,30.12
2019-01-10T09:55:28.615Z,27.58
2019-01-10T09:57:55.459Z,27.35
2019-01-10T10:00:21.999Z,28.90
2019-01-10T10:02:48.933Z,26.42
2019-01-10T10:05:15.673Z,29.67
2019-01-10T10:07:42.210Z,30.37
2019-01-10T10:10:08.743Z,29.50
2019-01-10T10:12:35.279Z,31.90
2019-01-10T10:15:01.820Z,28.23
2019-01-10T10:17:28.653Z,25.70
2019-01-10T10:19:55.189Z,27.05
2019-01-10T10:22:22.030Z,30.02
2019-01-10T10:24:48.564Z,26.30
2019-01-10T10:27:15.100Z,28.02
2019-01-10T10:29:41.633Z,27.80
2019-01-10T10:32:08.166Z,27.42
2019-01-10T10:34:35.007Z,26.27
2019-01-10T10:37:01.858Z,26.17
2019-01-10T10:39:28.692Z,27.65
2019-01-10T10:41:55.230Z,28.75
2019-01-10T10:44:21.762Z,30.70
2019-01-10T10:46:48.298Z,28.17
2019-01-10T10:49:17.427Z,26.87
2019-01-10T10:51:44.891Z,31.80
2019-01-10T10:54:11.588Z,28.30
2019-01-10T10:56:39.829Z,30.25
2019-01-10T10:59:06.497Z,26.42
2019-01-10T11:01:33.343Z,27.45
2019-01-10T11:04:00.184Z,28.45
2019-01-10T11:06:26.714Z,33.28
2019-01-10T11:08:53.267Z,30.82
2019-01-10T11:11:20.092Z,31.75
2019-01-10T11:13:46.630Z,27.65
2019-01-10T11:16:13.466Z,28.17
2019-01-10T11:18:40.001Z,25.90
2019-01-10T11:21:06.843Z,29.02
2019-01-10T11:23:33.384Z,30.00
2019-01-10T11:25:59.921Z,29.30
2019-01-10T11:28:26.754Z,28.80
2019-01-10T11:30:53.292Z,33.38
2019-01-10T11:33:20.151Z,29.77
2019-01-10T11:35:46.664Z,34.73
2019-01-10T11:38:13.202Z,34.43
2019-01-10T11:40:40.039Z,32.25
2019-01-10T11:43:06.574Z,34.80
2019-01-10T11:45:33.417Z,33.63
2019-01-10T11:47:59.951Z,30.85
2019-01-10T11:50:26.792Z,31.60
2019-01-10T11:52:53.328Z,32.00
2019-01-10T11:55:20.169Z,30.35
2019-01-10T11:57:46.704Z,30.68
2019-01-10T12:00:13.548Z,29.12
2019-01-10T12:02:40.398Z,27.73
2019-01-10T12:05:06.925Z,33.78
2019-01-10T12:07:33.455Z,31.23
2019-01-10T12:09:59.990Z,31.68
2019-01-10T12:12:26.831Z,30.85
2019-01-10T12:14:53.673Z,37.35
2019-01-10T12:17:20.214Z,32.35
2019-01-10T12:19:47.049Z,35.98
2019-01-10T12:22:13.893Z,34.63
2019-01-10T12:24:40.427Z,30.70
2019-01-10T12:27:07.268Z,35.05
2019-01-10T12:29:36.247Z,31.02
2019-01-10T12:32:02.197Z,37.42
2019-01-10T12:34:29.020Z,31.62
2019-01-10T12:37:00.256Z,34.45
2019-01-10T12:39:23.933Z,37.10
2019-01-10T12:41:50.471Z,36.35
2019-01-10T12:44:17.898Z,36.98
2019-01-10T12:46:44.463Z,35.50
2019-01-10T12:49:11.662Z,33.50
2019-01-10T12:51:38.755Z,31.85
2019-01-10T12:54:05.294Z,33.53
2019-01-10T12:56:32.131Z,34.95
2019-01-10T12:58:58.669Z,37.42
2019-01-10T13:01:25.222Z,35.50
2019-01-10T13:03:52.041Z,33.92
2019-01-10T13:06:18.884Z,32.67
2019-01-10T13:08:45.732Z,34.13
2019-01-10T13:11:12.566Z,30.97
2019-01-10T13:13:39.408Z,30.88
2019-01-10T13:16:05.943Z,35.45
2019-01-10T13:18:32.477Z,32.40
2019-01-10T13:20:59.367Z,37.17
2019-01-10T13:23:26.160Z,34.58
2019-01-10T13:25:59.481Z,31.12
2019-01-10T13:28:21.072Z,33.40
2019-01-10T13:30:47.609Z,35.28
2019-01-10T13:33:14.453Z,31.15
2019-01-10T13:35:41.292Z,36.58
2019-01-10T13:38:08.135Z,32.93
2019-01-10T13:40:34.975Z,37.13
2019-01-10T13:43:01.823Z,37.65
2019-01-10T13:45:28.355Z,33.23
2019-01-10T13:47:54.889Z,34.45
2019-01-10T13:50:21.419Z,41.23
2019-01-10T13:52:47.960Z,32.33
2019-01-10T13:55:14.800Z,33.95
2019-01-10T13:57:41.637Z,31.95
2019-01-10T14:00:08.171Z,32.25
2019-01-10T14:02:34.705Z,36.15
2019-01-10T14:05:01.550Z,30.60
2019-01-10T14:07:28.391Z,33.00
2019-01-10T14:09:54.922Z,34.23
2019-01-10T14:12:21.457Z,34.63
2019-01-10T14:14:47.994Z,31.42
2019-01-10T14:17:14.527Z,31.15
2019-01-10T14:19:41.374Z,29.48
2019-01-10T14:22:08.210Z,29.70
2019-01-10T14:24:34.745Z,27.05
2019-01-10T14:27:01.279Z,30.43
2019-01-10T14:29:27.830Z,32.20
2019-01-10T14:31:55.166Z,29.70
2019-01-10T14:34:21.820Z,30.62
2019-01-10T14:36:48.645Z,32.58
2019-01-10T14:39:15.486Z,28.67
2019-01-10T14:41:42.330Z,32.95
2019-01-10T14:44:09.171Z,28.75
2019-01-10T14:46:35.704Z,30.50
2019-01-10T14:49:02.547Z,32.75
2019-01-10T14:51:29.388Z,28.00
2019-01-10T14:53:56.598Z,29.35
2019-01-10T14:56:23.380Z,30.97
2019-01-10T14:58:50.224Z,29.42
2019-01-10T15:01:16.755Z,30.30
2019-01-10T15:03:43.600Z,28.77
2019-01-10T15:06:10.142Z,27.62
2019-01-10T15:08:36.668Z,37.42
2019-01-10T15:11:03.509Z,29.92
2019-01-10T15:13:30.029Z,30.82
2019-01-10T15:15:56.889Z,29.50
2019-01-10T15:18:23.422Z,30.15
2019-01-10T15:20:50.259Z,26.60
2019-01-10T15:23:17.100Z,28.65
2019-01-10T15:25:43.942Z,29.55
2019-01-10T15:28:10.479Z,29.45
2019-01-10T15:30:37.015Z,31.90
2019-01-10T15:33:03.858Z,29.42
2019-01-10T15:35:30.698Z,30.23
2019-01-10T15:37:57.863Z,31.02
2019-01-10T15:40:24.379Z,32.45
2019-01-10T15:42:50.913Z,29.30
2019-01-10T15:45:17.585Z,32.67
2019-01-10T15:47:44.288Z,30.08
2019-01-10T15:50:11.129Z,30.50
2019-01-10T15:52:37.666Z,27.50
2019-01-10T15:55:04.199Z,30.15
2019-01-10T15:57:31.039Z,28.73
2019-01-10T15:59:57.577Z,32.55
2019-01-10T16:02:24.416Z,31.07
2019-01-10T16:04:51.261Z,30.55
2019-01-10T16:07:17.793Z,30.43
2019-01-10T16:09:44.635Z,31.80
2019-01-10T16:12:11.169Z,31.17
2019-01-10T16:14:38.010Z,31.87
2019-01-10T16:17:04.548Z,30.65
2019-01-10T16:19:31.082Z,30.00
2019-01-10T16:21:57.619Z,31.60
2019-01-10T16:24:24.456Z,32.17
2019-01-10T16:26:51.297Z,32.78
2019-01-10T16:29:17.813Z,31.87
2019-01-10T16:31:44.369Z,29.32
2019-01-10T16:34:11.208Z,28.60
2019-01-10T16:36:37.745Z,29.18
2019-01-10T16:39:04.584Z,31.87
2019-01-10T16:41:31.119Z,31.23
2019-01-10T16:43:57.654Z,30.72
2019-01-10T16:46:24.189Z,33.53
2019-01-10T16:48:51.029Z,32.48
2019-01-10T16:51:17.565Z,32.53
2019-01-10T16:53:44.098Z,33.18
2019-01-10T16:56:10.634Z,33.55
2019-01-10T16:58:37.474Z,32.40
2019-01-10T17:01:04.014Z,29.67
2019-01-10T17:03:30.850Z,35.78
2019-01-10T17:05:57.385Z,33.00
2019-01-10T17:08:23.922Z,30.82
2019-01-10T17:10:51.383Z,33.35
2019-01-10T17:13:18.222Z,29.30
2019-01-10T17:15:44.815Z,31.37
2019-01-10T17:18:11.593Z,30.15
2019-01-10T17:20:38.435Z,32.85
2019-01-10T17:23:05.278Z,29.05
2019-01-10T17:25:31.811Z,29.52
2019-01-10T17:27:58.366Z,30.62
2019-01-10T17:30:25.186Z,30.52
2019-01-10T17:32:51.722Z,30.45
2019-01-10T17:35:18.258Z,29.63
2019-01-10T17:37:44.796Z,31.73
2019-01-10T17:40:11.640Z,31.97
2019-01-10T17:42:38.167Z,32.25
2019-01-10T17:45:04.701Z,29.02
2019-01-10T17:47:31.552Z,29.95
2019-01-10T17:49:58.078Z,29.70
2019-01-10T17:52:25.126Z,29.23
2019-01-10T17:54:52.379Z,30.08
2019-01-10T17:57:19.218Z,31.80
2019-01-10T17:59:45.752Z,28.65
2019-01-10T18:02:12.286Z,30.00
2019-01-10T18:04:38.820Z,28.20
2019-01-10T18:07:05.357Z,30.17
2019-01-10T18:09:32.204Z,27.50
2019-01-10T18:11:59.042Z,29.65
2019-01-10T18:14:25.596Z,28.50
2019-01-10T18:16:52.425Z,31.95
2019-01-10T18:19:18.958Z,30.17
2019-01-10T18:21:46.075Z,33.23
2019-01-10T18:24:12.939Z,27.82
2019-01-10T18:26:39.479Z,30.77
2019-01-10T18:29:06.321Z,24.77
2019-01-10T18:31:33.163Z,33.92
2019-01-10T18:33:59.693Z,30.97
2019-01-10T18:36:26.227Z,25.97
2019-01-10T18:38:52.764Z,28.95
2019-01-10T18:41:19.815Z,28.23
2019-01-10T18:43:47.055Z,27.37
2019-01-10T18:46:13.900Z,29.95
2019-01-10T18:48:40.741Z,28.80
2019-01-10T18:51:07.591Z,26.27
2019-01-10T18:53:34.120Z,28.73
2019-01-10T18:56:00.961Z,29.02
2019-01-10T18:58:27.800Z,30.35
2019-01-10T19:00:54.336Z,31.23
2019-01-10T19:03:21.177Z,29.65
2019-01-10T19:05:48.018Z,28.15
2019-01-10T19:08:14.884Z,30.32
2019-01-10T19:10:41.394Z,30.05
2019-01-10T19:13:08.236Z,27.50
2019-01-10T19:15:35.080Z,29.72
2019-01-10T19:18:03.587Z,29.60
2019-01-10T19:20:30.001Z,26.85
2019-01-10T19:22:56.528Z,29.85
2019-01-10T19:25:23.059Z,30.40
2019-01-10T19:27:49.907Z,27.75
2019-01-10T19:30:16.748Z,28.35
2019-01-10T19:32:43.585Z,28.38
2019-01-10T19:35:10.429Z,30.35
2019-01-10T19:37:36.967Z,29.15
2019-01-10T19:40:03.815Z,32.25
2019-01-10T19:42:30.647Z,28.35
2019-01-10T19:44:57.184Z,29.60
2019-01-10T19:47:24.020Z,29.70
2019-01-10T19:49:50.554Z,27.27
2019-01-10T19:52:17.280Z,29.45
2019-01-10T19:54:43.930Z,29.95
2019-01-10T19:57:10.775Z,29.60
2019-01-10T19:59:37.337Z,29.35
2019-01-10T20:02:03.840Z,32.75
2019-01-10T20:04:30.693Z,28.95
2019-01-10T20:06:57.218Z,28.87
2019-01-10T20:09:29.849Z,30.10
2019-01-10T20:11:52.129Z,31.05
2019-01-10T20:14:18.975Z,33.05
2019-01-10T20:16:45.506Z,29.67
2019-01-10T20:19:12.040Z,31.52
2019-01-10T20:21:38.576Z,34.15
2019-01-10T20:24:05.416Z,29.30
2019-01-10T20:26:31.951Z,32.58
2019-01-10T20:28:58.487Z,34.10
2019-01-10T20:31:25.328Z,35.10
2019-01-10T20:33:52.168Z,31.87
2019-01-10T20:36:18.705Z,31.55
2019-01-10T20:38:45.546Z,32.17
2019-01-10T20:41:12.386Z,33.13
2019-01-10T20:43:39.227Z,33.08
2019-01-10T20:46:05.763Z,31.10
2019-01-10T20:48:32.604Z,31.52
2019-01-10T20:50:59.137Z,30.62
2019-01-10T20:53:26.082Z,28.95
2019-01-10T20:55:52.828Z,32.38
2019-01-10T20:58:19.357Z,31.90
2019-01-10T21:00:46.198Z,33.45
2019-01-10T21:03:13.040Z,28.52
2019-01-10T21:05:39.883Z,30.25
2019-01-10T21:08:06.429Z,28.57
2019-01-10T21:10:32.959Z,26.82
2019-01-10T21:12:59.490Z,30.45
2019-01-10T21:15:26.020Z,33.08
2019-01-10T21:17:52.860Z,28.73
2019-01-10T21:20:19.395Z,30.97
2019-01-10T21:22:45.929Z,34.03
2019-01-10T21:25:12.776Z,28.92
2019-01-10T21:27:39.613Z,33.25
2019-01-10T21:30:06.454Z,31.10
2019-01-10T21:32:32.995Z,31.45
2019-01-10T21:34:59.529Z,32.83
2019-01-10T21:37:26.368Z,30.62
2019-01-10T21:39:52.901Z,29.48
2019-01-10T21:42:19.434Z,32.98
2019-01-10T21:44:45.972Z,36.48
2019-01-10T21:47:12.504Z,32.98
2019-01-10T21:49:39.345Z,30.48
2019-01-10T21:52:05.878Z,33.23
2019-01-10T21:54:32.722Z,33.05
2019-01-10T21:56:59.561Z,33.83
2019-01-10T21:59:26.406Z,35.35
2019-01-10T22:01:52.938Z,29.67
2019-01-10T22:04:19.476Z,31.27
2019-01-10T22:06:46.317Z,35.00
2019-01-10T22:09:13.158Z,31.93
2019-01-10T22:11:39.700Z,34.78
2019-01-10T22:14:06.532Z,30.68
2019-01-10T22:16:33.067Z,41.10
2019-01-10T22:18:59.909Z,35.92
2019-01-10T22:21:26.750Z,39.45
2019-01-10T22:23:53.284Z,37.28
2019-01-10T22:26:20.153Z,40.23
2019-01-10T22:28:46.661Z,38.33
2019-01-10T22:31:13.489Z,38.83
2019-01-10T22:33:40.343Z,35.48
2019-01-10T22:36:07.185Z,31.57
2019-01-10T22:38:34.030Z,31.73
2019-01-10T22:41:00.868Z,32.15
2019-01-10T22:43:27.404Z,31.25
2019-01-10T22:45:53.938Z,32.78
2019-01-10T22:48:20.781Z,31.20
2019-01-10T22:50:47.622Z,36.17
2019-01-10T22:53:14.146Z,32.17
2019-01-10T22:55:40.691Z,30.72
2019-01-10T22:58:07.224Z,30.80
2019-01-10T23:00:33.759Z,30.90
2019-01-10T23:03:00.601Z,30.75
2019-01-10T23:05:27.442Z,29.35
2019-01-10T23:07:54.283Z,28.23
2019-01-10T23:10:20.832Z,32.48
2019-01-10T23:12:47.660Z,29.57
2019-01-10T23:15:14.195Z,30.27
2019-01-10T23:17:41.035Z,29.77
2019-01-10T23:20:07.570Z,28.90
2019-01-10T23:22:34.107Z,27.52
2019-01-10T23:25:00.642Z,30.82
2019-01-10T23:27:27.175Z,29.60
2019-01-10T23:29:54.006Z,29.52
2019-01-10T23:32:20.579Z,28.05
2019-01-10T23:34:47.105Z,30.65
2019-01-10T23:37:13.627Z,30.70
2019-01-10T23:39:40.158Z,33.30
2019-01-10T23:42:06.774Z,27.75
2019-01-10T23:44:33.536Z,28.83
2019-01-10T23:47:00.068Z,30.60
2019-01-10T23:49:26.941Z,29.65
2019-01-10T23:51:53.752Z,32.80
2019-01-10T23:54:20.286Z,29.10
2019-01-10T23:56:47.133Z,29.67
2019-01-10T23:59:13.972Z,27.58
